Terminal Aerodrome Forecast
Issued by NWS Binghamton, NY

Home | Current Version | Previous Version | Text Only | Print | Product List | Glossary On
Versions: 1 2 3 4 5 6 7 8 9 10 11 12 13 14 15 16 17 18 19 20 21 22 23
673
FTUS41 KBGM 281125
TAFSYR
TAF
KSYR 281125Z 2812/2912 00000KT P6SM SCT035 OVC090
     FM281500 33003KT 4SM -SHRA BR OVC015
      TEMPO 2816/2819 2SM -SHRA BR OVC009
     FM282000 32005KT 3SM BR OVC010
     FM282200 32005KT P6SM OVC015
     FM290300 32006KT P6SM OVC020=

USA.gov is the U.S. government's official web portal to all federal, state and local government web resources and services.